createdAt,value
2019-03-25T00:00:08.845Z,40.50
2019-03-25T00:02:39.711Z,40.60
2019-03-25T00:05:09.181Z,40.80
2019-03-25T00:07:38.608Z,40.90
2019-03-25T00:10:07.949Z,41.20
2019-03-25T00:12:37.404Z,40.70
2019-03-25T00:15:19.364Z,41.60
2019-03-25T00:17:48.693Z,41.10
2019-03-25T00:20:18.030Z,41.10
2019-03-25T00:22:47.424Z,41.20
2019-03-25T00:25:16.665Z,41.50
2019-03-25T00:27:46.810Z,41.40
2019-03-25T00:30:18.013Z,41.70
2019-03-25T00:32:47.204Z,41.60
2019-03-25T00:35:16.451Z,41.80
2019-03-25T00:37:45.705Z,41.70
2019-03-25T00:40:15.092Z,41.80
2019-03-25T00:42:44.407Z,41.90
2019-03-25T00:45:13.581Z,41.70
2019-03-25T00:47:42.839Z,41.70
2019-03-25T00:50:12.141Z,41.70
2019-03-25T00:52:42.837Z,41.90
2019-03-25T00:55:12.088Z,41.70
2019-03-25T00:57:41.321Z,41.90
2019-03-25T01:00:10.567Z,41.80
2019-03-25T01:02:39.857Z,42.00
2019-03-25T01:05:09.180Z,41.90
2019-03-25T01:07:38.492Z,42.00
2019-03-25T01:10:08.006Z,42.20
2019-03-25T01:12:37.223Z,42.10
2019-03-25T01:15:07.134Z,42.20
2019-03-25T01:17:36.393Z,42.30
2019-03-25T01:20:06.723Z,42.30
2019-03-25T01:22:35.927Z,42.40
2019-03-25T01:25:06.601Z,42.50
2019-03-25T01:27:36.083Z,42.50
2019-03-25T01:30:07.534Z,42.70
2019-03-25T01:32:36.767Z,42.70
2019-03-25T01:35:06.682Z,42.70
2019-03-25T01:37:35.931Z,42.80
2019-03-25T01:40:07.147Z,43.10
2019-03-25T01:42:36.402Z,43.10
2019-03-25T01:45:06.180Z,42.80
2019-03-25T01:47:35.510Z,43.00
2019-03-25T01:50:06.181Z,43.30
2019-03-25T01:52:35.568Z,43.50
2019-03-25T01:55:13.059Z,43.90
2019-03-25T01:57:35.823Z,44.20
2019-03-25T02:00:06.700Z,45.20
2019-03-25T02:02:35.999Z,45.80
2019-03-25T02:05:06.512Z,46.10
2019-03-25T02:07:35.849Z,46.40
2019-03-25T02:10:06.522Z,46.30
2019-03-25T02:12:35.764Z,46.60
2019-03-25T02:15:06.179Z,46.80
2019-03-25T02:17:35.555Z,46.90
2019-03-25T02:20:08.693Z,47.50
2019-03-25T02:22:37.928Z,47.50
2019-03-25T02:25:07.285Z,47.50
2019-03-25T02:27:37.436Z,47.50
2019-03-25T02:30:07.678Z,47.80
2019-03-25T02:32:36.837Z,48.10
2019-03-25T02:35:06.684Z,48.60
2019-03-25T02:37:36.006Z,46.50
2019-03-25T02:40:06.190Z,46.20
2019-03-25T02:42:35.446Z,46.60
2019-03-25T02:45:06.806Z,47.40
2019-03-25T02:47:36.045Z,48.10
2019-03-25T02:50:05.669Z,48.70
2019-03-25T02:52:34.928Z,48.60
2019-03-25T02:55:05.949Z,48.30
2019-03-25T02:57:35.254Z,48.30
2019-03-25T03:00:04.882Z,48.00
2019-03-25T03:02:34.769Z,47.70
2019-03-25T03:05:05.012Z,47.90
2019-03-25T03:07:34.334Z,49.00
2019-03-25T03:10:06.806Z,49.10
2019-03-25T03:12:36.135Z,48.90
2019-03-25T03:15:06.217Z,48.10
2019-03-25T03:17:35.557Z,48.90
2019-03-25T03:20:06.840Z,48.30
2019-03-25T03:22:36.114Z,48.50
2019-03-25T03:25:05.428Z,49.00
2019-03-25T03:27:34.668Z,49.00
2019-03-25T03:30:05.273Z,48.50
2019-03-25T03:32:34.557Z,48.00
2019-03-25T03:35:05.644Z,48.40
2019-03-25T03:37:34.876Z,48.50
2019-03-25T03:40:05.710Z,48.60
2019-03-25T03:42:34.958Z,48.60
2019-03-25T03:45:05.342Z,48.90
2019-03-25T03:47:34.659Z,49.00
2019-03-25T03:50:06.476Z,48.50
2019-03-25T03:52:36.080Z,47.50
2019-03-25T03:55:06.385Z,47.50
2019-03-25T03:57:36.895Z,47.20
2019-03-25T04:00:07.129Z,47.00
2019-03-25T04:02:36.518Z,46.90
2019-03-25T04:05:05.753Z,46.80
2019-03-25T04:07:35.076Z,46.90
2019-03-25T04:10:06.000Z,46.80
2019-03-25T04:12:35.265Z,46.80
2019-03-25T04:15:06.502Z,46.70
2019-03-25T04:17:35.683Z,46.80
2019-03-25T04:20:06.685Z,47.20
2019-03-25T04:22:36.137Z,47.20
2019-03-25T04:25:06.241Z,47.10
2019-03-25T04:27:35.554Z,47.70
2019-03-25T04:30:05.272Z,48.00
2019-03-25T04:32:34.572Z,48.40
2019-03-25T04:35:04.854Z,48.80
2019-03-25T04:37:34.049Z,48.90
2019-03-25T04:40:07.025Z,49.00
2019-03-25T04:42:36.386Z,48.80
2019-03-25T04:45:08.392Z,49.10
2019-03-25T04:47:37.666Z,49.50
2019-03-25T04:50:06.917Z,50.00
2019-03-25T04:52:36.239Z,50.40
2019-03-25T04:55:06.728Z,50.60
2019-03-25T04:57:35.945Z,51.00
2019-03-25T05:00:06.773Z,51.10
2019-03-25T05:02:35.985Z,50.60
2019-03-25T05:05:07.687Z,51.60
2019-03-25T05:07:36.969Z,51.60
2019-03-25T05:10:07.039Z,51.70
2019-03-25T05:12:36.199Z,51.40
2019-03-25T05:15:06.392Z,51.60
2019-03-25T05:17:35.808Z,51.90
2019-03-25T05:20:05.414Z,51.90
2019-03-25T05:22:34.657Z,51.80
2019-03-25T05:25:05.340Z,52.90
2019-03-25T05:27:34.534Z,53.30
2019-03-25T05:30:05.527Z,53.10
2019-03-25T05:32:34.932Z,53.10
2019-03-25T05:35:06.872Z,53.00
2019-03-25T05:37:36.124Z,53.50
2019-03-25T05:40:05.368Z,53.00
2019-03-25T05:42:34.638Z,53.60
2019-03-25T05:45:05.565Z,53.20
2019-03-25T05:47:34.838Z,53.10
2019-03-25T05:50:09.022Z,52.70
2019-03-25T05:52:38.587Z,52.20
2019-03-25T05:55:08.214Z,51.80
2019-03-25T05:57:37.466Z,51.60
2019-03-25T06:00:07.877Z,51.10
2019-03-25T06:02:37.322Z,51.80
2019-03-25T06:05:06.934Z,51.10
2019-03-25T06:07:36.238Z,51.30
2019-03-25T06:10:06.326Z,51.40
2019-03-25T06:12:36.154Z,52.10
2019-03-25T06:15:06.034Z,51.80
2019-03-25T06:17:35.464Z,52.00
2019-03-25T06:20:06.495Z,52.20
2019-03-25T06:22:35.880Z,52.00
2019-03-25T06:25:06.588Z,51.70
2019-03-25T06:27:35.958Z,51.90
2019-03-25T06:30:09.228Z,52.20
2019-03-25T06:32:38.523Z,51.20
2019-03-25T06:35:08.945Z,50.80
2019-03-25T06:37:38.597Z,52.60
2019-03-25T06:40:08.298Z,52.40
2019-03-25T06:42:37.624Z,52.00
2019-03-25T06:45:07.558Z,51.90
2019-03-25T06:47:36.804Z,51.50
2019-03-25T06:50:07.398Z,51.90
2019-03-25T06:52:36.687Z,52.00
2019-03-25T06:55:07.349Z,52.10
2019-03-25T06:57:38.665Z,51.60
2019-03-25T07:00:08.245Z,51.50
2019-03-25T07:02:37.761Z,52.20
2019-03-25T07:05:07.079Z,51.60
2019-03-25T07:07:36.251Z,51.40
2019-03-25T07:10:06.401Z,50.80
2019-03-25T07:12:36.613Z,50.80
2019-03-25T07:15:08.796Z,50.00
2019-03-25T07:17:38.199Z,49.60
2019-03-25T07:20:08.411Z,49.90
2019-03-25T07:22:38.961Z,49.80
2019-03-25T07:25:08.326Z,49.00
2019-03-25T07:27:37.617Z,48.30
2019-03-25T07:30:08.185Z,48.30
2019-03-25T07:32:37.432Z,48.20
2019-03-25T07:35:07.581Z,48.20
2019-03-25T07:37:36.773Z,47.90
2019-03-25T07:40:07.389Z,47.80
2019-03-25T07:42:36.614Z,48.00
2019-03-25T07:45:08.923Z,48.40
2019-03-25T07:47:38.239Z,48.50
2019-03-25T07:50:07.939Z,47.60
2019-03-25T07:52:37.146Z,47.00
2019-03-25T07:55:06.440Z,46.40
2019-03-25T07:57:35.760Z,46.80
2019-03-25T08:00:13.595Z,46.60
2019-03-25T08:02:39.203Z,46.90
2019-03-25T08:05:08.415Z,47.20
2019-03-25T08:07:37.723Z,47.20
2019-03-25T08:10:07.000Z,46.60
2019-03-25T08:12:48.416Z,46.40
2019-03-25T08:15:17.691Z,46.60
2019-03-25T08:17:46.924Z,46.70
2019-03-25T08:20:16.315Z,46.60
2019-03-25T08:22:45.615Z,46.80
2019-03-25T08:25:14.786Z,46.30
2019-03-25T08:27:44.009Z,46.30
2019-03-25T08:30:13.216Z,46.60
2019-03-25T08:32:42.471Z,46.60
2019-03-25T08:35:11.739Z,46.60
2019-03-25T08:37:41.086Z,46.70
2019-03-25T08:40:10.320Z,46.00
2019-03-25T08:42:39.593Z,46.20
2019-03-25T08:45:08.750Z,46.20
2019-03-25T08:47:37.987Z,46.60
2019-03-25T08:50:08.396Z,46.30
2019-03-25T08:52:37.655Z,45.90
2019-03-25T08:55:06.995Z,45.50
2019-03-25T08:57:36.327Z,45.90
2019-03-25T09:00:07.485Z,45.70
2019-03-25T09:02:36.777Z,45.40
2019-03-25T09:05:07.451Z,45.60
2019-03-25T09:07:36.796Z,45.80
2019-03-25T09:10:07.679Z,46.10
2019-03-25T09:12:37.071Z,45.70
2019-03-25T09:15:08.177Z,45.60
2019-03-25T09:17:37.479Z,45.70
2019-03-25T09:20:08.363Z,44.60
2019-03-25T09:22:37.570Z,44.60
2019-03-25T09:25:08.084Z,45.10
2019-03-25T09:27:37.278Z,44.50
2019-03-25T09:30:08.616Z,44.50
2019-03-25T09:32:37.870Z,44.60
2019-03-25T09:35:08.040Z,44.30
2019-03-25T09:37:38.271Z,44.10
2019-03-25T09:40:09.154Z,45.40
2019-03-25T09:42:38.469Z,45.20
2019-03-25T09:45:08.397Z,45.40
2019-03-25T09:47:38.045Z,45.90
2019-03-25T09:50:08.714Z,43.10
2019-03-25T09:52:38.909Z,41.90
2019-03-25T09:55:09.257Z,41.00
2019-03-25T09:57:38.554Z,40.40
2019-03-25T10:00:10.427Z,41.50
2019-03-25T10:02:39.594Z,43.00
2019-03-25T10:05:08.854Z,42.40
2019-03-25T10:07:38.161Z,41.80
2019-03-25T10:10:07.515Z,41.90
2019-03-25T10:12:36.681Z,41.60
2019-03-25T10:15:07.884Z,41.60
2019-03-25T10:17:37.112Z,41.30
2019-03-25T10:20:07.375Z,41.30
2019-03-25T10:22:36.617Z,41.30
2019-03-25T10:25:07.582Z,41.70
2019-03-25T10:27:36.770Z,41.10
2019-03-25T10:30:10.006Z,40.60
2019-03-25T10:32:39.267Z,40.80
2019-03-25T10:35:08.538Z,40.30
2019-03-25T10:37:37.818Z,40.70
2019-03-25T10:40:07.199Z,40.90
2019-03-25T10:42:36.475Z,40.50
2019-03-25T10:45:06.880Z,40.60
2019-03-25T10:47:36.186Z,41.50
2019-03-25T10:50:05.988Z,40.20
2019-03-25T10:52:35.330Z,39.90
2019-03-25T10:55:07.724Z,40.10
2019-03-25T10:57:36.617Z,39.40
2019-03-25T11:00:08.874Z,39.90
2019-03-25T11:02:38.737Z,40.50
2019-03-25T11:05:07.914Z,40.10
2019-03-25T11:07:37.175Z,38.30
2019-03-25T11:10:08.269Z,38.60
2019-03-25T11:12:37.528Z,38.20
2019-03-25T11:15:09.725Z,37.60
2019-03-25T11:17:38.985Z,38.30
2019-03-25T11:20:08.721Z,39.30
2019-03-25T11:22:38.061Z,39.10
2019-03-25T11:25:07.325Z,38.00
2019-03-25T11:27:36.628Z,38.80
2019-03-25T11:30:10.378Z,38.20
2019-03-25T11:32:39.528Z,39.00
2019-03-25T11:35:09.476Z,39.10
2019-03-25T11:37:39.609Z,38.50
2019-03-25T11:40:09.305Z,36.40
2019-03-25T11:42:38.636Z,36.00
2019-03-25T11:45:08.621Z,38.30
2019-03-25T11:47:37.918Z,36.30
2019-03-25T11:50:07.692Z,37.40
2019-03-25T11:52:36.930Z,36.80
2019-03-25T11:55:06.446Z,37.50
2019-03-25T11:57:35.609Z,36.50
2019-03-25T12:00:07.575Z,37.00
2019-03-25T12:02:37.090Z,37.00
2019-03-25T12:05:06.685Z,36.50
2019-03-25T12:07:36.081Z,36.20
2019-03-25T12:10:06.294Z,35.20
2019-03-25T12:12:35.544Z,35.10
2019-03-25T12:15:07.389Z,35.10
2019-03-25T12:17:36.731Z,34.90
2019-03-25T12:20:08.938Z,34.80
2019-03-25T12:22:38.209Z,35.30
2019-03-25T12:25:07.606Z,35.20
2019-03-25T12:27:36.787Z,34.80
2019-03-25T12:30:10.230Z,34.30
2019-03-25T12:32:39.547Z,35.60
2019-03-25T12:35:08.740Z,35.80
2019-03-25T12:37:38.153Z,35.30
2019-03-25T12:40:07.987Z,33.70
2019-03-25T12:42:37.814Z,32.80
2019-03-25T12:45:07.361Z,32.90
2019-03-25T12:47:37.824Z,33.00
2019-03-25T12:50:08.160Z,32.50
2019-03-25T12:52:37.395Z,31.70
2019-03-25T12:55:06.580Z,31.50
2019-03-25T12:57:35.874Z,32.00
2019-03-25T13:00:08.181Z,31.80
2019-03-25T13:02:37.491Z,33.30
2019-03-25T13:05:06.931Z,33.20
2019-03-25T13:07:37.187Z,31.80
2019-03-25T13:10:06.615Z,32.00
2019-03-25T13:12:35.858Z,32.10
2019-03-25T13:15:08.691Z,30.30
2019-03-25T13:17:39.219Z,29.90
2019-03-25T13:20:08.474Z,29.90
2019-03-25T13:22:37.721Z,30.90
2019-03-25T13:25:06.932Z,30.20
2019-03-25T13:27:36.276Z,31.30
2019-03-25T13:30:08.168Z,30.90
2019-03-25T13:32:41.094Z,29.90
2019-03-25T13:35:14.294Z,30.10
2019-03-25T13:37:45.228Z,30.50
2019-03-25T13:40:14.988Z,30.90
2019-03-25T13:42:45.916Z,30.20
2019-03-25T13:45:15.186Z,29.00
2019-03-25T13:47:44.458Z,28.40
2019-03-25T13:50:13.689Z,28.40
2019-03-25T13:52:42.891Z,28.20
2019-03-25T13:55:12.240Z,28.80
2019-03-25T13:57:41.552Z,29.90
2019-03-25T14:00:12.452Z,29.30
2019-03-25T14:02:42.896Z,28.80
2019-03-25T14:05:13.270Z,28.40
2019-03-25T14:07:44.236Z,27.40
2019-03-25T14:10:13.685Z,27.90
2019-03-25T14:12:42.895Z,27.20
2019-03-25T14:15:12.316Z,28.00
2019-03-25T14:17:41.700Z,27.20
2019-03-25T14:20:11.193Z,25.80
2019-03-25T14:22:40.473Z,23.40
2019-03-25T14:25:09.760Z,23.40
2019-03-25T14:27:39.107Z,23.70
2019-03-25T14:30:14.523Z,23.30
2019-03-25T14:32:39.597Z,23.60
2019-03-25T14:35:09.154Z,23.40
2019-03-25T14:37:38.469Z,23.30
2019-03-25T14:40:07.908Z,23.50
2019-03-25T14:42:37.705Z,22.90
2019-03-25T14:45:07.779Z,22.90
2019-03-25T14:47:38.190Z,22.70
2019-03-25T14:50:07.467Z,23.40
2019-03-25T14:52:36.822Z,22.90
2019-03-25T14:55:06.141Z,22.80
2019-03-25T14:57:35.443Z,22.90
2019-03-25T15:00:06.960Z,23.90
2019-03-25T15:02:36.441Z,23.70
2019-03-25T15:05:07.390Z,23.70
2019-03-25T15:07:36.761Z,23.90
2019-03-25T15:10:07.281Z,24.50
2019-03-25T15:12:36.784Z,24.40
2019-03-25T15:15:07.185Z,24.30
2019-03-25T15:17:36.557Z,24.00
2019-03-25T15:20:10.077Z,24.30
2019-03-25T15:22:40.088Z,24.50
2019-03-25T15:25:09.736Z,24.20
2019-03-25T15:27:39.089Z,24.50
2019-03-25T15:30:09.343Z,24.30
2019-03-25T15:32:38.517Z,25.20
2019-03-25T15:35:08.372Z,24.60
2019-03-25T15:37:37.883Z,24.50
2019-03-25T15:40:08.972Z,24.30
2019-03-25T15:42:38.239Z,24.40
2019-03-25T15:45:08.595Z,24.40
2019-03-25T15:47:38.542Z,24.40
2019-03-25T15:50:08.361Z,23.30
2019-03-25T15:52:38.305Z,22.10
2019-03-25T15:55:08.621Z,22.10
2019-03-25T15:57:39.776Z,22.70
2019-03-25T16:00:16.687Z,23.10
2019-03-25T16:02:45.990Z,23.60
2019-03-25T16:05:15.864Z,23.00
2019-03-25T16:07:45.122Z,22.90
2019-03-25T16:10:15.810Z,23.00
2019-03-25T16:12:45.680Z,23.00
2019-03-25T16:15:34.913Z,23.20
2019-03-25T16:18:05.968Z,21.90
2019-03-25T16:20:38.205Z,21.10
2019-03-25T16:23:09.843Z,21.90
2019-03-25T16:25:41.484Z,22.40
2019-03-25T16:28:10.741Z,23.30
2019-03-25T16:30:39.934Z,24.20
2019-03-25T16:33:09.230Z,24.80
2019-03-25T16:35:38.519Z,25.80
2019-03-25T16:38:07.897Z,26.20
2019-03-25T16:40:37.199Z,26.70
2019-03-25T16:43:08.186Z,26.80
2019-03-25T16:45:38.384Z,27.20
2019-03-25T16:48:10.504Z,28.10
2019-03-25T16:50:39.954Z,27.70
2019-03-25T16:53:09.186Z,28.10
2019-03-25T16:55:38.506Z,29.00
2019-03-25T16:58:07.751Z,30.00
2019-03-25T17:00:36.904Z,30.30
2019-03-25T17:03:06.330Z,30.70
2019-03-25T17:05:35.811Z,31.50
2019-03-25T17:08:05.121Z,31.60
2019-03-25T17:10:34.384Z,32.40
2019-03-25T17:13:03.718Z,32.80
2019-03-25T17:15:33.000Z,32.70
2019-03-25T17:18:02.284Z,32.90
2019-03-25T17:20:31.627Z,33.10
2019-03-25T17:23:00.918Z,33.70
2019-03-25T17:25:31.330Z,33.70
2019-03-25T17:28:01.775Z,34.40
2019-03-25T17:30:31.112Z,34.30
2019-03-25T17:33:00.403Z,34.50
2019-03-25T17:35:29.685Z,35.10
2019-03-25T17:37:58.944Z,35.30
2019-03-25T17:40:28.354Z,35.50
2019-03-25T17:42:58.799Z,35.80
2019-03-25T17:45:28.112Z,36.10
2019-03-25T17:47:57.503Z,36.20
2019-03-25T17:50:26.749Z,36.30
2019-03-25T17:52:56.000Z,36.20
2019-03-25T17:55:25.179Z,36.40
2019-03-25T17:57:54.483Z,36.60
2019-03-25T18:00:49.838Z,35.60
2019-03-25T18:03:19.316Z,34.40
2019-03-25T18:05:49.807Z,33.90
2019-03-25T18:08:19.165Z,33.30
2019-03-25T18:10:48.447Z,33.20
2019-03-25T18:13:22.263Z,33.10
2019-03-25T18:15:48.611Z,33.30
2019-03-25T18:18:18.289Z,32.90
2019-03-25T18:20:47.595Z,31.60
2019-03-25T18:23:16.922Z,31.60
2019-03-25T18:25:46.193Z,31.80
2019-03-25T18:28:15.531Z,32.10
2019-03-25T18:30:44.727Z,31.50
2019-03-25T18:33:13.993Z,31.60
2019-03-25T18:35:43.248Z,30.50
2019-03-25T18:38:12.559Z,30.20
2019-03-25T18:40:41.818Z,30.00
2019-03-25T18:43:12.056Z,29.40
2019-03-25T18:45:41.886Z,28.80
2019-03-25T18:48:11.084Z,27.50
2019-03-25T18:50:40.261Z,26.70
2019-03-25T18:53:09.504Z,26.70
2019-03-25T18:55:38.807Z,26.20
2019-03-25T18:58:08.109Z,26.50
2019-03-25T19:00:37.367Z,26.40
2019-03-25T19:03:06.763Z,26.20
2019-03-25T19:05:36.221Z,25.70
2019-03-25T19:08:05.496Z,25.30
2019-03-25T19:10:34.807Z,25.80
2019-03-25T19:13:03.964Z,26.30
2019-03-25T19:15:33.240Z,25.70
2019-03-25T19:18:03.076Z,25.20
2019-03-25T19:20:32.524Z,24.90
2019-03-25T19:23:01.839Z,23.90
2019-03-25T19:25:31.171Z,22.80
2019-03-25T19:28:00.456Z,22.90
2019-03-25T19:30:29.640Z,23.20
2019-03-25T19:32:58.866Z,23.60
2019-03-25T19:35:29.989Z,23.60
2019-03-25T19:37:59.217Z,23.70
2019-03-25T19:40:28.598Z,23.80
2019-03-25T19:42:57.930Z,23.90
2019-03-25T19:45:27.232Z,24.00
2019-03-25T19:47:56.579Z,24.20
2019-03-25T19:50:25.913Z,24.50
2019-03-25T19:52:58.473Z,24.40
2019-03-25T19:55:36.399Z,24.20
2019-03-25T19:58:07.978Z,23.90
2019-03-25T20:00:43.274Z,23.40
2019-03-25T20:03:19.456Z,23.00
2019-03-25T20:05:50.930Z,22.30
2019-03-25T20:08:20.541Z,22.40
2019-03-25T20:10:49.995Z,22.80
2019-03-25T20:13:19.354Z,21.80
2019-03-25T20:15:48.879Z,21.60
2019-03-25T20:18:18.229Z,21.70
2019-03-25T20:20:53.939Z,22.50
2019-03-25T20:23:20.560Z,22.50
2019-03-25T20:25:50.691Z,22.90
2019-03-25T20:28:22.813Z,22.50
2019-03-25T20:30:52.265Z,22.30
2019-03-25T20:33:21.553Z,22.10
2019-03-25T20:35:50.821Z,22.40
2019-03-25T20:38:20.212Z,22.20
2019-03-25T20:40:49.547Z,22.40
2019-03-25T20:43:18.807Z,22.00
2019-03-25T20:45:48.224Z,21.80
2019-03-25T20:48:17.605Z,20.90
2019-03-25T20:50:48.108Z,20.00
2019-03-25T20:53:17.432Z,20.30
2019-03-25T20:55:46.737Z,21.50
2019-03-25T20:58:15.977Z,21.70
2019-03-25T21:00:50.283Z,22.30
2019-03-25T21:03:19.705Z,22.40
2019-03-25T21:05:49.504Z,22.40
2019-03-25T21:08:18.867Z,22.60
2019-03-25T21:10:48.632Z,22.30
2019-03-25T21:13:19.026Z,21.80
2019-03-25T21:15:48.233Z,22.10
2019-03-25T21:18:17.707Z,21.50
2019-03-25T21:20:46.923Z,22.30
2019-03-25T21:23:16.277Z,20.90
2019-03-25T21:25:45.578Z,20.10
2019-03-25T21:28:15.395Z,20.80
2019-03-25T21:30:48.312Z,20.70
2019-03-25T21:33:15.699Z,18.50
2019-03-25T21:35:45.055Z,18.50
2019-03-25T21:38:14.518Z,17.20
2019-03-25T21:40:43.934Z,15.10
2019-03-25T21:43:13.130Z,14.60
2019-03-25T21:45:42.344Z,14.60
2019-03-25T21:48:11.637Z,15.00
2019-03-25T21:50:40.873Z,14.90
2019-03-25T21:53:10.289Z,14.40
2019-03-25T21:55:39.720Z,14.90
2019-03-25T21:58:09.016Z,15.00
2019-03-25T22:00:39.607Z,15.20
2019-03-25T22:03:12.157Z,17.30
2019-03-25T22:05:41.060Z,20.90
2019-03-25T22:08:10.296Z,21.60
2019-03-25T22:10:39.846Z,21.80
2019-03-25T22:13:10.465Z,21.10
2019-03-25T22:15:39.700Z,22.00
2019-03-25T22:18:09.959Z,24.20
2019-03-25T22:20:39.127Z,24.10
2019-03-25T22:23:08.406Z,24.90
2019-03-25T22:25:41.052Z,25.00
2019-03-25T22:28:11.432Z,25.20
2019-03-25T22:30:41.852Z,24.60
2019-03-25T22:33:24.883Z,24.20
2019-03-25T22:35:43.041Z,23.80
2019-03-25T22:38:12.207Z,23.30
2019-03-25T22:40:41.372Z,23.60
2019-03-25T22:43:10.680Z,24.20
2019-03-25T22:45:39.854Z,26.50
2019-03-25T22:48:10.130Z,28.60
2019-03-25T22:50:39.406Z,29.60
2019-03-25T22:53:08.650Z,29.50
2019-03-25T22:55:37.813Z,29.80
2019-03-25T22:58:06.983Z,31.50
2019-03-25T23:00:40.712Z,33.10
2019-03-25T23:03:10.180Z,35.70
2019-03-25T23:05:39.324Z,37.50
2019-03-25T23:08:08.587Z,38.30
2019-03-25T23:10:38.991Z,39.80
2019-03-25T23:13:08.306Z,42.20
2019-03-25T23:15:37.497Z,43.30
2019-03-25T23:18:06.673Z,43.90
2019-03-25T23:20:35.911Z,42.40
2019-03-25T23:23:05.123Z,41.70
2019-03-25T23:25:34.298Z,38.00
2019-03-25T23:28:03.875Z,36.50
2019-03-25T23:30:34.057Z,36.30
2019-03-25T23:33:03.290Z,35.20
2019-03-25T23:35:32.525Z,36.80
2019-03-25T23:38:01.745Z,38.90
2019-03-25T23:40:30.920Z,41.20
2019-03-25T23:43:00.169Z,42.70
2019-03-25T23:45:29.416Z,43.80
2019-03-25T23:48:01.620Z,44.70
2019-03-25T23:50:30.832Z,45.70
2019-03-25T23:53:06.623Z,46.70
2019-03-25T23:55:35.762Z,47.40
2019-03-25T23:58:04.923Z,47.80
